createdAt,value
2019-03-04T00:02:26.530Z,64.60
2019-03-04T00:04:52.782Z,65.03
2019-03-04T00:07:22.154Z,64.82
2019-03-04T00:09:48.455Z,64.99
2019-03-04T00:12:14.697Z,64.39
2019-03-04T00:14:42.979Z,64.30
2019-03-04T00:17:09.448Z,64.42
2019-03-04T00:19:35.742Z,64.26
2019-03-04T00:22:05.870Z,63.80
2019-03-04T00:24:32.364Z,63.88
2019-03-04T00:26:58.646Z,64.00
2019-03-04T00:29:24.792Z,64.25
2019-03-04T00:31:51.068Z,63.69
2019-03-04T00:34:24.069Z,64.34
2019-03-04T00:36:50.492Z,63.89
2019-03-04T00:39:16.584Z,63.88
2019-03-04T00:41:42.818Z,64.08
2019-03-04T00:44:08.990Z,64.01
2019-03-04T00:46:35.186Z,64.42
2019-03-04T00:49:03.979Z,64.97
2019-03-04T00:51:30.286Z,64.21
2019-03-04T00:53:56.402Z,64.83
2019-03-04T00:56:22.609Z,64.54
2019-03-04T00:58:48.776Z,64.70
2019-03-04T01:01:15.096Z,64.97
2019-03-04T01:03:41.214Z,65.03
2019-03-04T01:06:07.424Z,64.68
2019-03-04T01:08:33.809Z,64.69
2019-03-04T01:11:00.138Z,64.58
2019-03-04T01:13:31.753Z,64.61
2019-03-04T01:15:57.973Z,64.91
2019-03-04T01:18:25.396Z,64.72
2019-03-04T01:20:51.820Z,64.57
2019-03-04T01:23:18.027Z,64.26
2019-03-04T01:25:44.390Z,63.84
2019-03-04T01:28:10.569Z,63.70
2019-03-04T01:30:36.902Z,63.19
2019-03-04T01:33:03.258Z,63.53
2019-03-04T01:35:29.409Z,63.96
2019-03-04T01:37:55.626Z,63.69
2019-03-04T01:40:22.400Z,63.91
2019-03-04T01:42:48.541Z,63.63
2019-03-04T01:45:15.883Z,63.86
2019-03-04T01:47:42.344Z,63.41
2019-03-04T01:50:13.190Z,63.18
2019-03-04T01:52:39.572Z,63.80
2019-03-04T01:55:07.778Z,63.75
2019-03-04T01:57:34.161Z,64.34
2019-03-04T02:00:00.375Z,63.86
2019-03-04T02:02:26.543Z,63.74
2019-03-04T02:04:52.769Z,63.63
2019-03-04T02:07:19.620Z,63.61
2019-03-04T02:09:45.823Z,63.78
2019-03-04T02:12:12.041Z,64.24
2019-03-04T02:14:38.174Z,64.17
2019-03-04T02:17:04.350Z,64.26
2019-03-04T02:19:30.704Z,63.95
2019-03-04T02:21:57.107Z,63.91
2019-03-04T02:24:24.232Z,64.00
2019-03-04T02:26:51.582Z,63.58
2019-03-04T02:29:18.760Z,64.02
2019-03-04T02:31:45.095Z,63.77
2019-03-04T02:34:11.381Z,63.85
2019-03-04T02:36:37.677Z,63.69
2019-03-04T02:39:04.827Z,63.78
2019-03-04T02:41:32.926Z,63.94
2019-03-04T02:43:59.169Z,63.29
2019-03-04T02:46:25.547Z,63.18
2019-03-04T02:48:51.890Z,63.14
2019-03-04T02:51:18.224Z,63.19
2019-03-04T02:53:44.588Z,62.68
2019-03-04T02:56:11.477Z,62.59
2019-03-04T02:58:37.697Z,62.22
2019-03-04T03:01:04.170Z,62.13
2019-03-04T03:03:30.387Z,62.31
2019-03-04T03:05:56.685Z,62.43
2019-03-04T03:08:22.817Z,61.80
2019-03-04T03:10:49.188Z,61.95
2019-03-04T03:13:15.469Z,61.76
2019-03-04T03:15:41.600Z,62.25
2019-03-04T03:18:08.006Z,62.11
2019-03-04T03:20:34.307Z,61.59
2019-03-04T03:23:00.607Z,61.55
2019-03-04T03:25:26.755Z,61.90
2019-03-04T03:27:52.910Z,61.88
2019-03-04T03:30:20.460Z,61.88
2019-03-04T03:32:46.741Z,61.73
2019-03-04T03:35:13.025Z,61.76
2019-03-04T03:37:39.318Z,62.09
2019-03-04T03:40:12.390Z,61.31
2019-03-04T03:42:38.695Z,62.02
2019-03-04T03:45:06.899Z,61.32
2019-03-04T03:47:33.050Z,61.41
2019-03-04T03:49:59.241Z,61.45
2019-03-04T03:52:25.450Z,61.89
2019-03-04T03:54:51.801Z,61.39
2019-03-04T03:57:18.092Z,62.23
2019-03-04T03:59:44.397Z,62.45
2019-03-04T04:02:10.610Z,61.95
2019-03-04T04:04:36.886Z,61.51
2019-03-04T04:07:03.002Z,61.32
2019-03-04T04:09:29.629Z,61.37
2019-03-04T04:11:55.768Z,61.79
2019-03-04T04:14:22.153Z,61.76
2019-03-04T04:16:48.328Z,60.55
2019-03-04T04:19:14.542Z,60.28
2019-03-04T04:21:40.658Z,59.96
2019-03-04T04:24:06.795Z,59.27
2019-03-04T04:26:33.040Z,59.06
2019-03-04T04:29:01.107Z,58.22
2019-03-04T04:31:27.512Z,58.07
2019-03-04T04:33:53.781Z,57.92
2019-03-04T04:36:19.892Z,58.00
2019-03-04T04:38:46.102Z,57.13
2019-03-04T04:41:12.533Z,57.82
2019-03-04T04:43:38.639Z,57.71
2019-03-04T04:46:04.927Z,57.27
2019-03-04T04:48:31.146Z,56.63
2019-03-04T04:50:57.232Z,56.09
2019-03-04T04:53:23.342Z,55.91
2019-03-04T04:55:49.552Z,55.65
2019-03-04T04:58:15.672Z,56.23
2019-03-04T05:00:41.928Z,55.90
2019-03-04T05:03:08.145Z,56.34
2019-03-04T05:05:34.343Z,55.89
2019-03-04T05:08:00.420Z,56.00
2019-03-04T05:10:26.661Z,56.43
2019-03-04T05:12:52.865Z,56.55
2019-03-04T05:15:19.365Z,57.49
2019-03-04T05:17:45.785Z,57.18
2019-03-04T05:20:17.863Z,57.31
2019-03-04T05:22:44.034Z,57.39
2019-03-04T05:25:10.353Z,57.25
2019-03-04T05:27:36.448Z,56.43
2019-03-04T05:30:05.551Z,56.60
2019-03-04T05:32:32.911Z,55.78
2019-03-04T05:34:59.099Z,55.93
2019-03-04T05:37:25.249Z,55.02
2019-03-04T05:39:51.587Z,55.03
2019-03-04T05:42:17.858Z,54.49
2019-03-04T05:44:44.031Z,54.92
2019-03-04T05:47:10.238Z,53.75
2019-03-04T05:49:36.535Z,53.51
2019-03-04T05:52:02.893Z,54.01
2019-03-04T05:54:28.969Z,52.72
2019-03-04T05:56:55.119Z,53.06
2019-03-04T05:59:21.204Z,53.02
2019-03-04T06:01:51.105Z,53.24
2019-03-04T06:04:17.426Z,52.60
2019-03-04T06:06:45.715Z,52.94
2019-03-04T06:09:12.862Z,53.67
2019-03-04T06:11:39.116Z,52.87
2019-03-04T06:14:06.425Z,52.01
2019-03-04T06:16:32.735Z,52.11
2019-03-04T06:18:58.950Z,53.09
2019-03-04T06:21:25.168Z,53.19
2019-03-04T06:23:51.341Z,53.50
2019-03-04T06:26:17.743Z,53.15
2019-03-04T06:28:43.952Z,53.09
2019-03-04T06:31:10.110Z,53.35
2019-03-04T06:33:36.331Z,52.90
2019-03-04T06:36:02.674Z,53.45
2019-03-04T06:38:30.019Z,52.90
2019-03-04T06:40:56.365Z,52.54
2019-03-04T06:43:22.600Z,52.19
2019-03-04T06:45:48.703Z,52.45
2019-03-04T06:48:15.021Z,53.28
2019-03-04T06:50:46.880Z,52.73
2019-03-04T06:53:26.107Z,53.12
2019-03-04T06:55:59.029Z,52.67
2019-03-04T06:58:25.129Z,53.76
2019-03-04T07:00:52.526Z,54.72
2019-03-04T07:03:19.839Z,55.36
2019-03-04T07:05:47.640Z,55.43
2019-03-04T07:08:35.171Z,55.32
2019-03-04T07:11:01.279Z,58.46
2019-03-04T07:13:27.619Z,61.30
2019-03-04T07:15:53.970Z,63.73
2019-03-04T07:18:20.053Z,71.17
2019-03-04T07:20:46.306Z,74.48
2019-03-04T07:23:12.540Z,74.33
2019-03-04T07:25:38.822Z,74.49
2019-03-04T07:28:04.921Z,74.03
2019-03-04T07:30:31.001Z,73.38
2019-03-04T07:32:57.332Z,72.62
2019-03-04T07:35:23.621Z,72.96
2019-03-04T07:37:59.752Z,71.68
2019-03-04T07:40:25.915Z,73.32
2019-03-04T07:42:52.318Z,73.64
2019-03-04T07:45:18.528Z,71.31
2019-03-04T07:47:44.640Z,70.75
2019-03-04T07:50:11.088Z,69.37
2019-03-04T07:52:37.465Z,69.77
2019-03-04T07:55:05.487Z,67.95
2019-03-04T07:57:31.865Z,68.37
2019-03-04T07:59:58.702Z,66.67
2019-03-04T08:02:25.168Z,66.77
2019-03-04T08:04:51.308Z,65.64
2019-03-04T08:07:44.539Z,65.55
2019-03-04T08:10:36.705Z,62.99
2019-03-04T08:13:06.539Z,62.47
2019-03-04T08:15:35.140Z,63.50
2019-03-04T08:18:12.318Z,63.34
2019-03-04T08:20:38.615Z,62.57
2019-03-04T08:23:16.420Z,62.44
2019-03-04T08:25:42.802Z,63.59
2019-03-04T08:28:12.457Z,63.18
2019-03-04T08:30:39.934Z,62.32
2019-03-04T08:33:12.304Z,62.06
2019-03-04T08:35:38.761Z,62.47
2019-03-04T08:38:08.737Z,62.61
2019-03-04T08:40:34.954Z,62.16
2019-03-04T08:43:06.000Z,61.68
2019-03-04T08:45:32.319Z,61.40
2019-03-04T08:48:00.449Z,61.97
2019-03-04T08:50:28.063Z,61.16
2019-03-04T08:52:54.181Z,60.51
2019-03-04T08:55:20.652Z,60.46
2019-03-04T08:57:46.956Z,58.68
2019-03-04T09:00:21.654Z,58.65
2019-03-04T09:02:49.085Z,58.59
2019-03-04T09:05:15.602Z,58.61
2019-03-04T09:07:42.039Z,58.54
2019-03-04T09:10:20.019Z,59.27
2019-03-04T09:12:57.747Z,59.97
2019-03-04T09:15:24.239Z,60.47
2019-03-04T09:17:50.559Z,61.64
2019-03-04T09:20:17.550Z,60.99
2019-03-04T09:22:45.070Z,62.11
2019-03-04T09:25:30.372Z,63.15
2019-03-04T09:27:54.082Z,66.98
2019-03-04T09:30:20.809Z,67.71
2019-03-04T09:32:48.216Z,66.33
2019-03-04T09:35:19.806Z,66.61
2019-03-04T09:37:46.223Z,63.54
2019-03-04T09:40:19.842Z,63.85
2019-03-04T09:42:49.875Z,61.76
2019-03-04T09:45:16.178Z,59.89
2019-03-04T09:47:42.535Z,60.87
2019-03-04T09:50:33.206Z,58.68
2019-03-04T09:53:00.313Z,56.03
2019-03-04T09:55:37.547Z,56.80
2019-03-04T09:58:10.690Z,54.79
2019-03-04T10:00:51.410Z,54.88
2019-03-04T10:03:39.835Z,54.81
2019-03-04T10:06:15.612Z,51.96
2019-03-04T10:09:11.128Z,51.44
2019-03-04T10:11:50.580Z,51.44
2019-03-04T10:14:35.807Z,52.98
2019-03-04T10:17:40.769Z,52.75
2019-03-04T10:20:28.892Z,53.12
2019-03-04T10:23:07.692Z,53.90
2019-03-04T10:25:54.532Z,53.59
2019-03-04T10:28:41.248Z,53.60
2019-03-04T10:31:32.115Z,55.49
2019-03-04T10:34:18.668Z,55.41
2019-03-04T10:37:05.101Z,55.33
2019-03-04T10:39:50.251Z,55.23
2019-03-04T10:42:48.000Z,54.25
2019-03-04T10:45:33.205Z,55.94
2019-03-04T10:47:59.583Z,56.38
2019-03-04T10:50:25.917Z,59.68
2019-03-04T10:52:52.277Z,62.51
2019-03-04T10:55:18.669Z,64.65
2019-03-04T10:57:44.931Z,65.88
2019-03-04T11:00:14.448Z,69.13
2019-03-04T11:02:40.779Z,69.72
2019-03-04T11:05:07.245Z,69.32
2019-03-04T11:07:33.626Z,71.01
2019-03-04T11:10:00.283Z,71.96
2019-03-04T11:12:26.515Z,72.23
2019-03-04T11:14:52.877Z,72.24
2019-03-04T11:17:19.247Z,71.25
2019-03-04T11:19:45.708Z,71.10
2019-03-04T11:22:12.137Z,69.31
2019-03-04T11:24:38.375Z,66.84
2019-03-04T11:27:04.829Z,66.45
2019-03-04T11:29:31.116Z,67.10
2019-03-04T11:31:57.575Z,66.04
2019-03-04T11:34:23.948Z,65.62
2019-03-04T11:36:50.260Z,66.01
2019-03-04T11:39:24.229Z,65.66
2019-03-04T11:41:50.435Z,65.86
2019-03-04T11:44:16.598Z,65.35
2019-03-04T11:46:43.107Z,66.29
2019-03-04T11:49:09.452Z,63.24
2019-03-04T11:51:36.167Z,64.40
2019-03-04T11:54:02.914Z,63.85
2019-03-04T11:56:29.519Z,65.07
2019-03-04T11:58:57.069Z,65.21
2019-03-04T12:01:28.145Z,65.06
2019-03-04T12:03:54.391Z,63.98
2019-03-04T12:06:20.637Z,65.50
2019-03-04T12:08:46.913Z,66.20
2019-03-04T12:11:13.116Z,69.38
2019-03-04T12:13:39.341Z,73.64
2019-03-04T12:16:05.656Z,78.29
2019-03-04T12:18:33.306Z,79.22
2019-03-04T12:20:59.838Z,79.05
2019-03-04T12:23:26.291Z,79.86
2019-03-04T12:25:52.844Z,80.05
2019-03-04T12:28:20.299Z,79.42
2019-03-04T12:30:46.655Z,79.55
2019-03-04T12:33:13.137Z,80.19
2019-03-04T12:35:39.413Z,79.20
2019-03-04T12:38:05.842Z,78.49
2019-03-04T12:40:32.168Z,77.88
2019-03-04T12:43:00.579Z,78.19
2019-03-04T12:45:34.065Z,77.61
2019-03-04T12:47:54.983Z,76.10
2019-03-04T12:50:27.403Z,75.28
2019-03-04T12:52:54.556Z,77.23
2019-03-04T12:55:20.863Z,74.43
2019-03-04T12:57:47.122Z,74.33
2019-03-04T13:00:19.175Z,75.56
2019-03-04T13:02:45.484Z,73.65
2019-03-04T13:05:12.632Z,73.62
2019-03-04T13:07:39.013Z,74.85
2019-03-04T13:10:08.848Z,72.86
2019-03-04T13:12:35.196Z,73.13
2019-03-04T13:15:02.080Z,72.11
2019-03-04T13:17:28.338Z,69.58
2019-03-04T13:19:54.650Z,70.25
2019-03-04T13:22:20.950Z,68.78
2019-03-04T13:24:47.312Z,68.24
2019-03-04T13:27:13.485Z,67.79
2019-03-04T13:29:41.744Z,66.97
2019-03-04T13:32:08.180Z,67.23
2019-03-04T13:34:34.437Z,67.05
2019-03-04T13:37:00.661Z,67.48
2019-03-04T13:39:26.871Z,65.18
2019-03-04T13:41:53.187Z,65.41
2019-03-04T13:44:19.336Z,67.27
2019-03-04T13:46:45.698Z,68.52
2019-03-04T13:49:11.981Z,65.31
2019-03-04T13:51:38.746Z,65.56
2019-03-04T13:54:05.114Z,64.62
2019-03-04T13:56:31.429Z,65.79
2019-03-04T13:58:57.722Z,65.00
2019-03-04T14:01:24.622Z,64.08
2019-03-04T14:03:50.993Z,64.07
2019-03-04T14:06:17.347Z,63.67
2019-03-04T14:08:43.648Z,62.91
2019-03-04T14:11:10.105Z,62.49
2019-03-04T14:13:36.219Z,63.38
2019-03-04T14:16:03.171Z,63.48
2019-03-04T14:18:29.491Z,64.22
2019-03-04T14:20:55.929Z,63.74
2019-03-04T14:23:22.363Z,63.23
2019-03-04T14:25:49.869Z,63.60
2019-03-04T14:28:16.217Z,63.75
2019-03-04T14:30:42.528Z,64.16
2019-03-04T14:33:08.861Z,63.29
2019-03-04T14:35:35.025Z,63.67
2019-03-04T14:38:01.228Z,62.97
2019-03-04T14:40:27.567Z,63.85
2019-03-04T14:42:55.177Z,63.24
2019-03-04T14:45:25.922Z,62.52
2019-03-04T14:47:52.066Z,62.23
2019-03-04T14:50:19.725Z,62.00
2019-03-04T14:52:46.048Z,62.21
2019-03-04T14:55:19.839Z,61.03
2019-03-04T14:57:46.261Z,60.82
2019-03-04T15:00:16.087Z,61.24
2019-03-04T15:02:42.760Z,62.76
2019-03-04T15:05:10.173Z,61.84
2019-03-04T15:07:36.655Z,61.44
2019-03-04T15:10:06.723Z,61.86
2019-03-04T15:12:34.252Z,61.58
2019-03-04T15:15:00.679Z,61.92
2019-03-04T15:17:27.822Z,62.57
2019-03-04T15:19:54.138Z,60.45
2019-03-04T15:22:20.352Z,59.92
2019-03-04T15:24:46.447Z,61.24
2019-03-04T15:27:12.805Z,59.69
2019-03-04T15:29:39.166Z,58.75
2019-03-04T15:32:05.665Z,58.77
2019-03-04T15:34:31.790Z,57.88
2019-03-04T15:36:58.049Z,58.19
2019-03-04T15:39:24.263Z,57.41
2019-03-04T15:41:50.532Z,57.22
2019-03-04T15:44:16.772Z,56.46
2019-03-04T15:46:43.053Z,56.96
2019-03-04T15:49:09.398Z,56.18
2019-03-04T15:51:35.673Z,55.41
2019-03-04T15:54:02.118Z,56.02
2019-03-04T15:56:28.446Z,55.86
2019-03-04T15:58:54.701Z,56.70
2019-03-04T16:01:21.201Z,56.02
2019-03-04T16:03:47.491Z,55.45
2019-03-04T16:06:13.906Z,54.90
2019-03-04T16:08:40.286Z,56.75
2019-03-04T16:11:10.489Z,56.46
2019-03-04T16:13:36.786Z,56.63
2019-03-04T16:16:06.078Z,56.77
2019-03-04T16:18:32.421Z,56.25
2019-03-04T16:20:58.742Z,57.17
2019-03-04T16:23:25.399Z,57.75
2019-03-04T16:25:52.127Z,58.22
2019-03-04T16:28:24.440Z,57.01
2019-03-04T16:30:55.847Z,57.07
2019-03-04T16:33:23.182Z,57.09
2019-03-04T16:35:49.392Z,57.74
2019-03-04T16:38:16.819Z,58.24
2019-03-04T16:40:43.178Z,57.46
2019-03-04T16:43:09.491Z,57.81
2019-03-04T16:45:35.771Z,57.50
2019-03-04T16:48:07.894Z,57.54
2019-03-04T16:50:37.020Z,58.88
2019-03-04T16:53:12.493Z,58.32
2019-03-04T16:55:46.057Z,58.16
2019-03-04T16:58:15.372Z,58.95
2019-03-04T17:00:41.978Z,59.20
2019-03-04T17:03:09.406Z,58.29
2019-03-04T17:05:38.229Z,58.50
2019-03-04T17:10:51.794Z,59.19
2019-03-04T17:13:18.235Z,59.07
2019-03-04T17:15:44.580Z,58.55
2019-03-04T17:18:10.759Z,58.51
2019-03-04T17:20:37.096Z,57.98
2019-03-04T17:23:12.550Z,57.74
2019-03-04T17:25:45.458Z,58.36
2019-03-04T17:28:24.139Z,59.37
2019-03-04T17:30:50.738Z,58.83
2019-03-04T17:33:17.179Z,58.56
2019-03-04T17:35:50.168Z,58.87
2019-03-04T17:38:17.321Z,58.38
2019-03-04T17:40:44.976Z,58.68
2019-03-04T17:43:11.279Z,59.20
2019-03-04T17:45:37.754Z,59.07
2019-03-04T17:48:04.285Z,57.90
2019-03-04T17:50:35.765Z,57.73
2019-03-04T17:53:04.490Z,57.65
2019-03-04T17:55:30.927Z,57.98
2019-03-04T17:57:57.274Z,57.77
2019-03-04T18:00:23.667Z,58.09
2019-03-04T18:02:50.166Z,58.23
2019-03-04T18:05:16.575Z,57.31
2019-03-04T18:07:42.965Z,56.81
2019-03-04T18:10:13.055Z,56.84
2019-03-04T18:12:39.409Z,56.88
2019-03-04T18:15:09.406Z,57.35
2019-03-04T18:17:35.852Z,57.97
2019-03-04T18:20:04.817Z,58.27
2019-03-04T18:22:31.959Z,58.57
2019-03-04T18:24:58.191Z,59.71
2019-03-04T18:27:24.509Z,59.28
2019-03-04T18:29:57.176Z,58.92
2019-03-04T18:32:30.123Z,59.87
2019-03-04T18:35:24.031Z,59.86
2019-03-04T18:38:09.138Z,59.63
2019-03-04T18:40:55.955Z,60.65
2019-03-04T18:43:26.012Z,60.59
2019-03-04T18:46:17.064Z,60.49
2019-03-04T18:48:54.025Z,60.67
2019-03-04T18:51:20.412Z,60.78
2019-03-04T18:53:46.842Z,60.03
2019-03-04T18:56:21.702Z,60.33
2019-03-04T18:58:41.366Z,60.53
2019-03-04T19:01:07.856Z,60.31
2019-03-04T19:03:35.079Z,60.50
2019-03-04T19:06:02.052Z,60.23
2019-03-04T19:08:28.438Z,60.75
2019-03-04T19:10:54.803Z,60.25
2019-03-04T19:13:21.235Z,60.41
2019-03-04T19:15:47.611Z,59.73
2019-03-04T19:18:14.092Z,59.61
2019-03-04T19:20:40.620Z,59.98
2019-03-04T19:23:07.060Z,58.79
2019-03-04T19:25:33.296Z,59.20
2019-03-04T19:28:00.841Z,59.44
2019-03-04T19:30:27.350Z,58.96
2019-03-04T19:32:53.805Z,58.69
2019-03-04T19:35:21.515Z,59.49
2019-03-04T19:37:47.917Z,58.70
2019-03-04T19:40:15.367Z,58.94
2019-03-04T19:42:41.808Z,57.68
2019-03-04T19:45:20.202Z,57.91
2019-03-04T19:47:46.903Z,57.05
2019-03-04T19:50:14.342Z,56.98
2019-03-04T19:52:40.758Z,58.74
2019-03-04T19:55:12.616Z,58.26
2019-03-04T19:57:39.624Z,58.01
2019-03-04T20:00:09.721Z,57.87
2019-03-04T20:02:36.352Z,57.91
2019-03-04T20:05:04.490Z,57.48
2019-03-04T20:07:33.107Z,57.96
2019-03-04T20:09:59.617Z,58.38
2019-03-04T20:12:27.963Z,57.78
2019-03-04T20:14:54.203Z,57.22
2019-03-04T20:17:20.424Z,57.34
2019-03-04T20:19:46.901Z,58.55
2019-03-04T20:22:13.654Z,58.03
2019-03-04T20:24:41.114Z,57.49
2019-03-04T20:27:07.587Z,57.64
2019-03-04T20:29:33.920Z,57.41
2019-03-04T20:32:00.168Z,57.96
2019-03-04T20:34:26.756Z,58.09
2019-03-04T20:36:53.101Z,57.09
2019-03-04T20:39:20.014Z,57.39
2019-03-04T20:41:46.454Z,57.52
2019-03-04T20:44:13.344Z,58.03
2019-03-04T20:46:40.079Z,57.99
2019-03-04T20:49:09.456Z,57.29
2019-03-04T20:51:35.832Z,57.65
2019-03-04T20:54:02.738Z,57.65
2019-03-04T20:56:30.862Z,58.06
2019-03-04T20:58:57.425Z,57.84
2019-03-04T21:01:23.872Z,57.33
2019-03-04T21:03:50.393Z,57.78
2019-03-04T21:06:16.875Z,57.62
2019-03-04T21:08:43.363Z,57.86
2019-03-04T21:11:10.826Z,58.62
2019-03-04T21:13:37.240Z,58.73
2019-03-04T21:16:04.050Z,59.07
2019-03-04T21:18:30.493Z,58.87
2019-03-04T21:20:58.121Z,59.52
2019-03-04T21:23:24.568Z,59.36
2019-03-04T21:25:57.462Z,59.96
2019-03-04T21:28:33.563Z,59.55
2019-03-04T21:31:37.484Z,59.68
2019-03-04T21:34:07.458Z,60.08
2019-03-04T21:37:03.324Z,60.52
2019-03-04T21:39:50.285Z,60.57
2019-03-04T21:42:26.625Z,60.35
2019-03-04T21:45:00.147Z,60.30
2019-03-04T21:47:30.406Z,60.67
2019-03-04T21:49:56.783Z,60.81
2019-03-04T21:52:29.952Z,60.80
2019-03-04T21:54:56.404Z,60.44
2019-03-04T21:57:26.344Z,60.73
2019-03-04T21:59:52.736Z,60.43
2019-03-04T22:02:22.663Z,60.18
2019-03-04T22:04:49.086Z,60.68
2019-03-04T22:07:15.519Z,61.09
2019-03-04T22:09:41.940Z,60.90
2019-03-04T22:12:12.766Z,61.19
2019-03-04T22:14:39.150Z,63.34
2019-03-04T22:17:05.479Z,62.86
2019-03-04T22:19:32.907Z,62.81
2019-03-04T22:21:59.256Z,62.05
2019-03-04T22:24:25.609Z,61.89
2019-03-04T22:26:51.927Z,61.49
2019-03-04T22:29:18.298Z,60.73
2019-03-04T22:31:44.586Z,60.92
2019-03-04T22:34:10.896Z,61.48
2019-03-04T22:36:37.087Z,62.00
2019-03-04T22:39:05.494Z,61.25
2019-03-04T22:41:33.643Z,63.72
2019-03-04T22:43:59.941Z,66.12
2019-03-04T22:46:26.266Z,68.40
2019-03-04T22:48:52.567Z,68.79
2019-03-04T22:51:18.850Z,69.26
2019-03-04T22:53:45.149Z,69.31
2019-03-04T22:56:11.502Z,70.63
2019-03-04T22:58:37.812Z,70.13
2019-03-04T23:01:09.604Z,69.87
2019-03-04T23:03:36.841Z,70.53
2019-03-04T23:06:09.921Z,71.13
2019-03-04T23:08:36.249Z,72.52
2019-03-04T23:11:02.690Z,72.98
2019-03-04T23:13:52.662Z,74.27
2019-03-04T23:16:21.611Z,75.62
2019-03-04T23:18:47.708Z,76.02
2019-03-04T23:21:17.070Z,77.13
2019-03-04T23:23:43.165Z,77.00
2019-03-04T23:26:10.451Z,77.07
2019-03-04T23:28:36.669Z,77.31
2019-03-04T23:31:03.012Z,76.85
2019-03-04T23:33:29.455Z,77.24
2019-03-04T23:35:55.770Z,77.31
2019-03-04T23:38:22.103Z,77.02
2019-03-04T23:40:49.424Z,77.04
2019-03-04T23:43:15.769Z,76.29
2019-03-04T23:45:41.966Z,76.11
2019-03-04T23:48:08.288Z,75.90
2019-03-04T23:50:34.424Z,75.45
2019-03-04T23:53:00.672Z,75.15
2019-03-04T23:55:26.984Z,74.93
2019-03-04T23:57:53.178Z,75.15
